Time;durP1;ratioP1;P1;durP2;ratioP2;P2;SDS_P1;SDS_P2;PMS_P1;PMS_P2;Temp;Humidity;BMP_temperature;BMP_pressure;BME280_temperature;BME280_humidity;BME280_pressure;Samples;Min_cycle;Max_cycle;Signal;HPM_P1;HPM_P2
2021/08/22 00:01:13;;;;;;;16.35;9.73;;;19.30;97.20;;;;;;5030426;28;20025;-78
2021/08/22 00:03:39;;;;;;;15.52;9.30;;;19.30;97.20;;;;;;5032099;28;20489;-78
2021/08/22 00:06:05;;;;;;;14.98;8.32;;;19.30;97.20;;;;;;5030287;28;20021;-78
2021/08/22 00:08:30;;;;;;;16.27;8.93;;;19.40;97.20;;;;;;5030881;28;20049;-78
2021/08/22 00:10:56;;;;;;;15.00;8.77;;;19.40;97.30;;;;;;5031806;28;20045;-79
2021/08/22 00:13:22;;;;;;;17.13;9.60;;;19.30;97.20;;;;;;5032403;28;20014;-78
2021/08/22 00:15:48;;;;;;;19.20;9.57;;;19.30;97.20;;;;;;5030871;28;20373;-78
2021/08/22 00:18:14;;;;;;;21.23;10.10;;;19.30;97.30;;;;;;5031623;28;20033;-78
2021/08/22 00:20:40;;;;;;;16.92;9.57;;;19.40;97.40;;;;;;5031822;28;20378;-78
2021/08/22 00:23:06;;;;;;;23.00;10.85;;;19.30;97.40;;;;;;5031349;28;20033;-79
2021/08/22 00:25:32;;;;;;;16.30;9.98;;;19.40;97.50;;;;;;5031585;28;20061;-79
2021/08/22 00:27:58;;;;;;;24.25;10.45;;;19.40;97.50;;;;;;5034676;28;20022;-81
2021/08/22 00:30:24;;;;;;;19.33;9.75;;;19.40;97.60;;;;;;5034916;28;20040;-79
2021/08/22 00:32:50;;;;;;;21.45;10.65;;;19.40;97.60;;;;;;5034589;28;20482;-79
2021/08/22 00:35:16;;;;;;;20.73;9.85;;;19.40;97.70;;;;;;5033805;28;20179;-79
2021/08/22 00:37:42;;;;;;;15.55;9.73;;;19.30;97.80;;;;;;5034447;28;20022;-79
2021/08/22 00:40:08;;;;;;;14.77;9.05;;;19.30;97.80;;;;;;5033861;28;20067;-79
2021/08/22 00:42:34;;;;;;;16.27;9.52;;;19.30;97.80;;;;;;5035712;28;20104;-79
2021/08/22 00:45:04;;;;;;;17.10;9.35;;;19.30;97.80;;;;;;5034135;28;20025;-79
2021/08/22 00:47:30;;;;;;;16.45;9.85;;;19.30;97.90;;;;;;5035928;28;20041;-79
2021/08/22 00:49:57;;;;;;;18.23;10.68;;;19.30;97.90;;;;;;5034446;28;20421;-79
2021/08/22 00:52:24;;;;;;;18.50;10.57;;;19.30;98.00;;;;;;5033537;28;20480;-79
2021/08/22 00:54:49;;;;;;;16.65;9.88;;;19.30;98.10;;;;;;5035518;28;20025;-79
2021/08/22 00:57:15;;;;;;;18.10;9.80;;;19.30;98.10;;;;;;5035388;28;20032;-79
2021/08/22 00:59:41;;;;;;;17.02;10.15;;;19.30;98.20;;;;;;5034637;28;20108;-79
2021/08/22 01:02:17;;;;;;;17.63;10.40;;;19.20;98.20;;;;;;5034827;28;20034;-78
2021/08/22 01:04:51;;;;;;;17.23;9.38;;;19.20;98.30;;;;;;5035703;28;20017;-79
2021/08/22 01:07:52;;;;;;;15.38;9.15;;;19.20;98.40;;;;;;5033324;28;20072;-79
2021/08/22 01:10:25;;;;;;;18.20;9.65;;;19.20;98.40;;;;;;5033313;28;20465;-79
2021/08/22 01:13:03;;;;;;;17.02;9.23;;;19.20;98.40;;;;;;5035343;28;20038;-79
2021/08/22 01:15:35;;;;;;;17.83;9.73;;;19.20;98.50;;;;;;5034136;28;20022;-79
2021/08/22 01:18:01;;;;;;;;;;;19.20;98.40;;;;;;5034516;28;20075;-79
2021/08/22 01:20:54;;;;;;;18.65;10.05;;;19.20;98.40;;;;;;5035270;28;19953;-79
2021/08/22 01:23:21;;;;;;;17.77;10.52;;;19.10;98.40;;;;;;5034710;28;20083;-79
2021/08/22 01:25:48;;;;;;;11.30;6.60;;;19.20;98.50;;;;;;5034934;28;20641;-79
2021/08/22 01:28:14;;;;;;;14.32;7.78;;;19.10;98.50;;;;;;5034844;28;20045;-79
2021/08/22 01:30:48;;;;;;;15.23;9.65;;;19.10;98.60;;;;;;5035781;28;20059;-79
2021/08/22 01:33:16;;;;;;;23.00;12.52;;;19.10;98.60;;;;;;5038194;28;20036;-79
2021/08/22 01:35:43;;;;;;;20.63;12.00;;;19.10;98.60;;;;;;5039989;28;20024;-78
2021/08/22 01:38:09;;;;;;;21.45;12.88;;;19.10;98.60;;;;;;5037812;28;20025;-79
2021/08/22 01:40:35;;;;;;;24.20;12.25;;;19.10;98.70;;;;;;5033794;28;20476;-80
2021/08/22 01:43:02;;;;;;;26.60;13.73;;;19.10;98.70;;;;;;5033609;28;20095;-79
2021/08/22 01:45:29;;;;;;;24.00;13.57;;;19.10;98.70;;;;;;5033511;28;20017;-79
2021/08/22 01:47:55;;;;;;;23.00;13.27;;;19.10;98.70;;;;;;5033516;28;20032;-79
2021/08/22 01:50:22;;;;;;;21.52;12.77;;;19.10;98.70;;;;;;5032827;28;20389;-80
2021/08/22 01:52:49;;;;;;;21.23;12.57;;;19.10;98.80;;;;;;5034731;28;20053;-79
2021/08/22 01:55:15;;;;;;;21.80;11.98;;;19.00;98.80;;;;;;5034227;28;20034;-79
2021/08/22 01:57:45;;;;;;;20.20;11.55;;;19.00;98.80;;;;;;5033568;28;20028;-79
2021/08/22 02:00:12;;;;;;;20.38;10.98;;;19.00;98.90;;;;;;5033864;28;20029;-80
2021/08/22 02:02:58;;;;;;;18.20;11.43;;;19.00;98.90;;;;;;5038133;28;20128;-79
2021/08/22 02:05:25;;;;;;;23.40;12.25;;;19.00;98.90;;;;;;5032812;28;20037;-78
2021/08/22 02:07:51;;;;;;;19.25;11.60;;;19.00;98.90;;;;;;5033074;28;20021;-79
2021/08/22 02:10:26;;;;;;;20.17;11.45;;;19.00;98.90;;;;;;5032382;28;20359;-79
2021/08/22 02:12:58;;;;;;;21.88;12.15;;;19.00;98.90;;;;;;5034382;28;20033;-79
2021/08/22 02:15:41;;;;;;;20.80;11.57;;;19.00;99.00;;;;;;5032425;28;20032;-79
2021/08/22 02:18:12;;;;;;;22.67;12.15;;;19.00;98.90;;;;;;5033649;28;20018;-80
2021/08/22 02:20:39;;;;;;;19.88;12.15;;;19.10;98.90;;;;;;5032541;28;20079;-79
2021/08/22 02:23:06;;;;;;;20.60;11.75;;;19.00;98.90;;;;;;5032770;28;20068;-79
2021/08/22 02:25:31;;;;;;;16.77;10.52;;;19.00;98.90;;;;;;5032736;28;20021;-79
2021/08/22 02:27:58;;;;;;;18.00;10.30;;;19.00;98.90;;;;;;5032707;28;20373;-79
2021/08/22 02:30:25;;;;;;;18.60;10.55;;;19.10;99.00;;;;;;5033299;28;20025;-78
2021/08/22 02:32:53;;;;;;;14.82;7.82;;;19.10;98.90;;;;;;5032593;28;20105;-79
2021/08/22 02:35:18;;;;;;;14.60;9.07;;;19.00;98.90;;;;;;5031737;28;20042;-78
2021/08/22 02:37:44;;;;;;;15.13;8.15;;;19.00;98.90;;;;;;5049072;28;20374;-79
2021/08/22 02:40:10;;;;;;;16.08;9.18;;;18.90;98.90;;;;;;5031772;28;20160;-79
2021/08/22 02:42:36;;;;;;;18.70;10.77;;;18.90;99.00;;;;;;5033745;28;20431;-79
2021/08/22 02:45:01;;;;;;;16.55;9.30;;;18.90;99.10;;;;;;5032342;28;20021;-78
2021/08/22 02:47:27;;;;;;;21.02;11.52;;;18.80;99.10;;;;;;5031425;28;20326;-78
2021/08/22 02:49:53;;;;;;;16.17;9.35;;;18.80;99.10;;;;;;5032077;28;20116;-78
2021/08/22 02:52:18;;;;;;;20.88;11.73;;;18.80;99.20;;;;;;5031433;28;20033;-79
2021/08/22 02:54:44;;;;;;;23.27;11.70;;;18.70;99.20;;;;;;5032053;28;20477;-78
2021/08/22 02:57:10;;;;;;;19.08;9.98;;;18.60;99.20;;;;;;5031461;28;20053;-79
2021/08/22 02:59:35;;;;;;;17.30;9.90;;;18.70;99.50;;;;;;5033262;28;20029;-79
2021/08/22 03:02:01;;;;;;;16.58;9.82;;;18.60;99.20;;;;;;5031872;28;20028;-78
2021/08/22 03:04:27;;;;;;;18.52;10.90;;;18.60;99.20;;;;;;5032590;28;20063;-78
2021/08/22 03:06:52;;;;;;;18.00;10.13;;;18.60;99.20;;;;;;5032924;28;20528;-78
2021/08/22 03:09:18;;;;;;;20.25;11.43;;;18.60;99.30;;;;;;5031179;28;20021;-78
2021/08/22 03:11:43;;;;;;;16.73;10.05;;;18.60;99.40;;;;;;5033092;28;20030;-78
2021/08/22 03:14:09;;;;;;;16.27;9.50;;;18.50;99.40;;;;;;5032917;28;20030;-81
2021/08/22 03:16:35;;;;;;;15.38;9.25;;;18.50;99.40;;;;;;5031660;28;20033;-78
2021/08/22 03:19:01;;;;;;;14.60;8.30;;;18.50;99.40;;;;;;5033076;28;20021;-78
2021/08/22 03:21:26;;;;;;;17.65;9.45;;;18.40;99.40;;;;;;5030613;28;20385;-78
2021/08/22 03:23:52;;;;;;;15.95;8.80;;;18.40;99.40;;;;;;5031521;28;20056;-78
2021/08/22 03:26:18;;;;;;;17.63;9.50;;;18.50;99.40;;;;;;5032281;28;20482;-78
2021/08/22 03:28:43;;;;;;;20.98;10.25;;;18.50;99.40;;;;;;5031492;28;20032;-78
2021/08/22 03:31:09;;;;;;;15.70;8.55;;;18.50;99.30;;;;;;5032669;28;20056;-78
2021/08/22 03:33:35;;;;;;;15.25;8.85;;;18.50;99.30;;;;;;5031811;28;20050;-78
2021/08/22 03:36:01;;;;;;;22.45;10.90;;;18.50;99.20;;;;;;5032668;28;20029;-78
2021/08/22 03:38:26;;;;;;;12.55;7.90;;;18.50;99.20;;;;;;5031982;28;20075;-78
2021/08/22 03:40:52;;;;;;;14.35;7.57;;;18.50;99.20;;;;;;5031358;28;20021;-78
2021/08/22 03:43:18;;;;;;;15.75;9.07;;;18.50;99.10;;;;;;5030754;28;20017;-79
2021/08/22 03:45:43;;;;;;;19.30;10.85;;;18.60;99.10;;;;;;5032568;28;20022;-78
2021/08/22 03:48:09;;;;;;;16.98;9.68;;;18.50;99.00;;;;;;5031143;28;20033;-79
2021/08/22 03:50:35;;;;;;;13.45;7.40;;;18.50;99.00;;;;;;5030565;28;20021;-79
2021/08/22 03:53:00;;;;;;;21.77;10.93;;;18.50;98.90;;;;;;5031133;28;20433;-79
2021/08/22 03:55:26;;;;;;;18.17;10.65;;;18.50;98.90;;;;;;5031780;28;20076;-79
2021/08/22 03:57:52;;;;;;;18.67;11.23;;;18.50;99.00;;;;;;5031019;28;20484;-79
2021/08/22 04:00:17;;;;;;;22.75;12.23;;;18.50;99.00;;;;;;5031213;28;20072;-79
2021/08/22 04:02:43;;;;;;;19.70;10.18;;;18.40;99.00;;;;;;5047414;28;20068;-79
2021/08/22 04:05:11;;;;;;;22.15;12.00;;;18.40;98.90;;;;;;5030853;28;20053;-78
2021/08/22 04:07:38;;;;;;;23.17;12.60;;;18.50;99.00;;;;;;5031568;28;20488;-78
2021/08/22 04:10:07;;;;;;;23.30;12.10;;;18.40;98.90;;;;;;5030849;28;20068;-77
2021/08/22 04:12:33;;;;;;;21.60;11.65;;;18.50;98.90;;;;;;5031371;28;20124;-78
2021/08/22 04:14:59;;;;;;;27.30;13.13;;;18.50;98.90;;;;;;5030746;28;20045;-78
2021/08/22 04:17:24;;;;;;;26.02;12.98;;;18.40;98.80;;;;;;5030076;28;20044;-78
2021/08/22 04:19:50;;;;;;;23.92;12.73;;;18.40;98.80;;;;;;5032317;28;20029;-78
2021/08/22 04:22:16;;;;;;;19.67;10.57;;;18.40;98.90;;;;;;5029801;28;20401;-78
2021/08/22 04:24:42;;;;;;;21.88;12.05;;;18.40;98.90;;;;;;5032391;28;20079;-78
2021/08/22 04:27:08;;;;;;;24.13;12.23;;;18.40;98.80;;;;;;5034776;28;20021;-77
2021/08/22 04:29:37;;;;;;;25.92;12.18;;;18.40;98.80;;;;;;5030127;28;20112;-79
2021/08/22 04:32:03;;;;;;;25.90;13.07;;;18.40;98.80;;;;;;5031909;28;20095;-77
2021/08/22 04:34:29;;;;;;;21.23;11.90;;;18.40;98.80;;;;;;5029576;28;20047;-78
2021/08/22 04:36:54;;;;;;;19.73;10.73;;;18.40;98.80;;;;;;5030655;28;20115;-78
2021/08/22 04:39:20;;;;;;;26.25;13.38;;;18.30;98.80;;;;;;5046580;28;20029;-78
2021/08/22 04:41:46;;;;;;;23.65;12.38;;;18.30;98.80;;;;;;5030523;28;20373;-78
2021/08/22 04:44:13;;;;;;;22.80;11.55;;;18.30;98.80;;;;;;5031826;28;20060;-78
2021/08/22 04:46:39;;;;;;;22.35;11.35;;;18.20;98.80;;;;;;5029814;28;20022;-78
2021/08/22 04:49:05;;;;;;;22.08;11.55;;;18.30;98.80;;;;;;5030479;28;20044;-77
2021/08/22 04:51:31;;;;;;;20.70;11.35;;;18.30;98.80;;;;;;5029948;28;20389;-78
2021/08/22 04:53:56;;;;;;;22.38;12.43;;;18.30;98.80;;;;;;5030392;28;20072;-78
2021/08/22 04:56:23;;;;;;;23.08;12.32;;;18.30;98.80;;;;;;5029822;28;20034;-78
2021/08/22 04:58:49;;;;;;;26.00;12.75;;;18.30;98.80;;;;;;5030359;28;20189;-78
2021/08/22 05:01:14;;;;;;;25.15;12.48;;;18.30;98.70;;;;;;5031630;28;20486;-77
2021/08/22 05:03:41;;;;;;;22.95;11.60;;;18.30;98.70;;;;;;5030971;28;20100;-78
2021/08/22 05:06:07;;;;;;;25.70;12.15;;;18.30;98.70;;;;;;5030221;28;20480;-78
2021/08/22 05:08:33;;;;;;;17.38;9.50;;;18.30;98.60;;;;;;5031195;28;20021;-78
2021/08/22 05:10:59;;;;;;;19.88;9.80;;;18.40;98.70;;;;;;5031508;28;20381;-77
2021/08/22 05:13:24;;;;;;;20.83;10.30;;;18.40;98.60;;;;;;5031858;28;20021;-78
2021/08/22 05:15:51;;;;;;;18.42;9.32;;;18.40;98.60;;;;;;5033850;28;20098;-78
2021/08/22 05:18:18;;;;;;;23.88;11.85;;;18.30;98.50;;;;;;5035364;28;20069;-78
2021/08/22 05:20:44;;;;;;;22.48;11.60;;;18.40;98.50;;;;;;5035420;28;20017;-78
2021/08/22 05:23:09;;;;;;;27.70;12.50;;;18.40;98.50;;;;;;5033795;28;20021;-78
2021/08/22 05:25:35;;;;;;;21.17;10.80;;;18.40;98.50;;;;;;5033117;28;20049;-78
2021/08/22 05:28:01;;;;;;;26.17;12.88;;;18.40;98.50;;;;;;5034988;28;20030;-78
2021/08/22 05:30:27;;;;;;;27.48;13.32;;;18.40;98.40;;;;;;5033079;28;20017;-78
2021/08/22 05:32:52;;;;;;;22.85;12.27;;;18.40;98.40;;;;;;5034918;28;20033;-78
2021/08/22 05:35:18;;;;;;;27.55;13.85;;;18.40;98.50;;;;;;5035138;28;20049;-77
2021/08/22 05:37:44;;;;;;;19.25;10.23;;;18.40;98.40;;;;;;5033076;28;20366;-78
2021/08/22 05:40:10;;;;;;;27.85;14.73;;;18.40;98.40;;;;;;5034759;28;20480;-78
2021/08/22 05:42:36;;;;;;;31.65;14.23;;;18.50;98.40;;;;;;5033915;28;20182;-77
2021/08/22 05:45:02;;;;;;;29.48;13.35;;;18.50;98.40;;;;;;5033378;28;20116;-78
2021/08/22 05:47:28;;;;;;;30.05;13.57;;;18.50;98.30;;;;;;5034165;28;20072;-78
2021/08/22 05:49:54;;;;;;;24.13;13.25;;;18.60;98.30;;;;;;5032950;28;20029;-78
2021/08/22 05:52:19;;;;;;;29.50;13.60;;;18.60;98.20;;;;;;5049881;28;20030;-78
2021/08/22 05:54:45;;;;;;;27.27;13.45;;;18.60;98.20;;;;;;5033217;28;20128;-78
2021/08/22 05:57:11;;;;;;;23.75;12.48;;;18.70;98.20;;;;;;5034710;28;20442;-78
2021/08/22 05:59:37;;;;;;;27.35;13.02;;;18.70;98.10;;;;;;5032554;28;20351;-78
2021/08/22 06:02:03;;;;;;;27.38;12.57;;;18.70;98.10;;;;;;5033266;28;20431;-78
2021/08/22 06:04:28;;;;;;;32.78;15.25;;;18.70;98.10;;;;;;5028312;28;20404;-78
2021/08/22 06:06:54;;;;;;;29.75;14.75;;;18.60;98.10;;;;;;5033821;28;20025;-79
2021/08/22 06:09:20;;;;;;;33.17;15.90;;;18.60;98.20;;;;;;5032924;28;20112;-79
2021/08/22 06:11:45;;;;;;;30.20;15.15;;;18.60;98.20;;;;;;5020328;28;20436;-80
2021/08/22 06:14:11;;;;;;;34.05;16.42;;;18.60;98.20;;;;;;5032694;28;20021;-79
2021/08/22 06:16:37;;;;;;;36.00;16.75;;;18.60;98.20;;;;;;5032672;28;20017;-80
2021/08/22 06:19:02;;;;;;;36.50;16.42;;;18.70;98.10;;;;;;5031242;28;20025;-78
2021/08/22 06:21:28;;;;;;;37.83;17.33;;;18.70;98.00;;;;;;5045364;28;20099;-81
2021/08/22 06:23:57;;;;;;;32.45;15.57;;;18.80;98.00;;;;;;5032676;28;20018;-79
2021/08/22 06:26:25;;;;;;;28.23;13.40;;;18.80;97.90;;;;;;5033067;28;20023;-81
2021/08/22 06:28:51;;;;;;;32.75;16.08;;;18.90;97.90;;;;;;5033980;28;20096;-80
2021/08/22 06:31:17;;;;;;;27.23;13.60;;;18.90;97.80;;;;;;5033525;28;20033;-80
2021/08/22 06:33:43;;;;;;;29.55;15.52;;;19.00;97.80;;;;;;5033348;28;20443;-80
2021/08/22 06:36:09;;;;;;;34.90;15.52;;;19.00;97.70;;;;;;5049381;28;20433;-80
2021/08/22 06:38:34;;;;;;;29.90;13.65;;;19.00;97.70;;;;;;5033143;28;20018;-81
2021/08/22 06:41:00;;;;;;;26.25;12.85;;;19.10;97.70;;;;;;5049060;28;20013;-80
2021/08/22 06:43:27;;;;;;;27.92;13.73;;;19.10;97.60;;;;;;5025505;28;20057;-80
2021/08/22 06:45:53;;;;;;;32.20;14.43;;;19.10;97.50;;;;;;5024420;28;20512;-79
2021/08/22 06:48:18;;;;;;;28.95;14.57;;;19.10;97.50;;;;;;5032602;28;20025;-79
2021/08/22 06:50:45;;;;;;;30.42;13.23;;;19.10;97.50;;;;;;5032539;28;20342;-79
2021/08/22 06:53:11;;;;;;;27.00;12.80;;;19.00;97.60;;;;;;5032181;28;20094;-79
2021/08/22 06:55:36;;;;;;;29.35;12.88;;;19.10;97.60;;;;;;5032394;28;20025;-80
2021/08/22 06:58:02;;;;;;;30.48;13.73;;;19.00;97.60;;;;;;5034750;28;20044;-78
2021/08/22 07:00:27;;;;;;;24.75;11.55;;;19.10;97.50;;;;;;5025501;28;20156;-81
2021/08/22 07:02:54;;;;;;;26.38;13.63;;;19.10;97.50;;;;;;5020150;28;20064;-79
2021/08/22 07:05:20;;;;;;;29.90;15.02;;;19.10;97.40;;;;;;5030713;28;20386;-78
2021/08/22 07:07:45;;;;;;;27.55;13.43;;;19.20;97.40;;;;;;5023263;28;20696;-80
2021/08/22 07:10:11;;;;;;;24.40;12.57;;;19.10;97.30;;;;;;5017312;28;20129;-79
2021/08/22 07:12:37;;;;;;;29.33;14.60;;;19.20;97.30;;;;;;5020852;28;20036;-80
2021/08/22 07:15:03;;;;;;;24.65;12.65;;;19.20;97.30;;;;;;5032998;28;20060;-79
2021/08/22 07:17:29;;;;;;;28.95;13.73;;;19.10;97.30;;;;;;5027783;28;20026;-79
2021/08/22 07:19:55;;;;;;;26.45;12.98;;;19.00;97.30;;;;;;5012078;28;20026;-79
2021/08/22 07:22:21;;;;;;;31.27;16.27;;;19.00;97.40;;;;;;5014185;28;20025;-79
2021/08/22 07:24:46;;;;;;;23.08;12.77;;;19.00;97.40;;;;;;5023187;28;20034;-80
2021/08/22 07:27:12;;;;;;;26.90;14.00;;;18.90;97.40;;;;;;5023798;28;20040;-79
2021/08/22 07:29:38;;;;;;;28.02;13.70;;;18.90;97.40;;;;;;5012479;28;20508;-80
2021/08/22 07:32:05;;;;;;;30.92;15.18;;;18.80;97.40;;;;;;5014263;28;20030;-79
2021/08/22 07:34:32;;;;;;;25.08;12.60;;;18.90;97.40;;;;;;5030560;28;20054;-78
2021/08/22 07:36:58;;;;;;;24.70;12.43;;;18.90;97.40;;;;;;5030876;28;20030;-79
2021/08/22 07:39:23;;;;;;;28.30;13.65;;;19.00;97.30;;;;;;5032097;28;20032;-79
2021/08/22 07:41:49;;;;;;;31.92;15.02;;;19.00;97.20;;;;;;5030673;28;20033;-80
2021/08/22 07:44:14;;;;;;;24.92;11.63;;;19.00;97.20;;;;;;5031875;28;20390;-80
2021/08/22 07:46:40;;;;;;;25.92;12.35;;;19.00;97.20;;;;;;5030176;28;20022;-80
2021/08/22 07:49:06;;;;;;;29.17;14.25;;;19.00;97.10;;;;;;5027646;28;20034;-78
2021/08/22 07:51:31;;;;;;;23.02;13.00;;;19.00;97.00;;;;;;5022778;28;20041;-82
2021/08/22 07:53:57;;;;;;;19.75;10.52;;;19.00;97.00;;;;;;5024818;28;20072;-79
2021/08/22 07:56:23;;;;;;;25.92;14.18;;;19.10;96.90;;;;;;5026092;28;20045;-81
2021/08/22 07:58:48;;;;;;;28.02;14.88;;;19.20;96.80;;;;;;5029054;28;20330;-81
2021/08/22 08:01:14;;;;;;;27.30;15.18;;;19.20;96.70;;;;;;5030751;28;20052;-78
2021/08/22 08:03:40;;;;;;;22.20;11.00;;;19.20;96.60;;;;;;5027697;28;20402;-79
2021/08/22 08:06:05;;;;;;;23.98;12.90;;;19.20;96.60;;;;;;5029326;28;20029;-78
2021/08/22 08:08:31;;;;;;;20.15;10.30;;;19.30;96.60;;;;;;5031598;28;20018;-79
2021/08/22 08:10:57;;;;;;;22.77;12.48;;;19.30;96.50;;;;;;5027505;28;20022;-78
2021/08/22 08:13:22;;;;;;;21.17;11.95;;;19.40;96.50;;;;;;5018109;28;20383;-79
2021/08/22 08:15:48;;;;;;;23.40;12.80;;;19.50;96.40;;;;;;5026859;28;20026;-78
2021/08/22 08:18:14;;;;;;;18.33;11.00;;;19.60;96.20;;;;;;5012563;28;20050;-79
2021/08/22 08:20:39;;;;;;;16.58;9.50;;;19.60;96.10;;;;;;5013154;28;20037;-79
2021/08/22 08:23:05;;;;;;;23.95;12.90;;;19.60;96.10;;;;;;5030789;28;20072;-79
2021/08/22 08:25:31;;;;;;;22.08;11.75;;;19.60;96.00;;;;;;5032199;28;20022;-79
2021/08/22 08:27:56;;;;;;;20.40;10.60;;;19.70;96.00;;;;;;5031189;28;20033;-79
2021/08/22 08:30:22;;;;;;;20.33;12.60;;;19.70;96.00;;;;;;5026878;28;20462;-79
2021/08/22 08:32:48;;;;;;;19.80;11.77;;;19.80;95.80;;;;;;5030920;28;20029;-79
2021/08/22 08:35:13;;;;;;;15.85;8.73;;;19.90;95.80;;;;;;5030153;28;20041;-78
2021/08/22 08:37:40;;;;;;;20.70;11.73;;;19.90;95.70;;;;;;5029493;28;20025;-79
2021/08/22 08:40:17;;;;;;;20.45;11.55;;;19.90;95.70;;;;;;5030587;28;20030;-79
2021/08/22 08:42:56;;;;;;;20.50;11.55;;;20.00;95.60;;;;;;5030563;28;20033;-79
2021/08/22 08:45:47;;;;;;;22.67;12.27;;;20.00;95.60;;;;;;5031779;28;20093;-79
2021/08/22 08:48:35;;;;;;;23.17;11.40;;;20.00;95.50;;;;;;5033804;28;20067;-78
2021/08/22 08:51:28;;;;;;;18.73;10.32;;;20.00;95.50;;;;;;5034634;28;20377;-79
2021/08/22 08:54:01;;;;;;;23.58;12.05;;;19.90;95.50;;;;;;5033789;28;20043;-78
2021/08/22 08:56:34;;;;;;;16.77;9.70;;;19.80;95.60;;;;;;5034276;28;20037;-79
2021/08/22 08:59:00;;;;;;;18.40;10.27;;;19.80;95.60;;;;;;5034244;28;20061;-78
2021/08/22 09:01:26;;;;;;;18.73;12.35;;;19.70;95.60;;;;;;5034188;28;20036;-79
2021/08/22 09:04:19;;;;;;;17.02;11.10;;;19.70;95.60;;;;;;5021994;28;20029;-79
2021/08/22 09:07:22;;;;;;;20.75;11.85;;;19.70;95.70;;;;;;5029407;28;20028;-79
2021/08/22 09:10:16;;;;;;;18.52;9.60;;;19.60;95.60;;;;;;5032525;28;20071;-79
2021/08/22 09:13:20;;;;;;;15.50;9.30;;;19.60;95.70;;;;;;5031297;28;20033;-79
2021/08/22 09:16:00;;;;;;;21.33;12.35;;;19.60;95.60;;;;;;5025617;28;20030;-79
2021/08/22 09:18:56;;;;;;;18.67;11.07;;;19.70;95.60;;;;;;5025244;28;20075;-78
2021/08/22 09:21:59;;;;;;;18.92;11.57;;;19.70;95.60;;;;;;5032645;28;20034;-78
2021/08/22 09:24:31;;;;;;;22.10;11.95;;;19.80;95.40;;;;;;5025638;28;20026;-79
2021/08/22 09:27:33;;;;;;;18.17;10.65;;;19.90;95.20;;;;;;5022281;28;20036;-79
2021/08/22 09:30:36;;;;;;;18.27;11.10;;;20.10;95.10;;;;;;5029636;28;20025;-79
2021/08/22 09:33:40;;;;;;;13.82;8.60;;;20.10;95.00;;;;;;5030351;28;20478;-79
2021/08/22 09:36:24;;;;;;;19.73;11.00;;;20.20;94.90;;;;;;5033630;28;20037;-79
2021/08/22 09:39:28;;;;;;;17.75;10.52;;;20.30;94.70;;;;;;5012763;28;20144;-79
2021/08/22 09:42:06;;;;;;;19.80;11.07;;;20.30;94.70;;;;;;5012780;28;20334;-78
2021/08/22 09:44:44;;;;;;;18.52;10.20;;;20.40;94.60;;;;;;5013391;28;20018;-77
2021/08/22 09:47:15;;;;;;;14.43;9.73;;;20.50;94.60;;;;;;5026517;28;20061;-79
2021/08/22 09:50:05;;;;;;;17.45;10.77;;;20.60;94.40;;;;;;5027283;28;20060;-79
2021/08/22 09:52:59;;;;;;;19.45;10.70;;;20.60;94.30;;;;;;5029653;28;20108;-78
2021/08/22 09:55:43;;;;;;;15.15;8.73;;;20.50;94.30;;;;;;5029406;28;20038;-78
2021/08/22 09:58:39;;;;;;;17.98;10.88;;;20.50;94.40;;;;;;5012856;28;20030;-78
2021/08/22 10:01:36;;;;;;;18.63;11.20;;;20.50;94.30;;;;;;5014910;28;20026;-79
2021/08/22 10:04:24;;;;;;;19.67;11.32;;;20.50;94.20;;;;;;5012876;28;20538;-80
2021/08/22 10:07:09;;;;;;;17.05;10.32;;;20.50;94.00;;;;;;5015713;28;20049;-79
2021/08/22 10:09:41;;;;;;;15.10;9.20;;;20.50;94.00;;;;;;5015617;28;20034;-79
2021/08/22 10:12:06;;;;;;;14.45;8.57;;;20.50;93.90;;;;;;5016666;28;20049;-80
2021/08/22 10:14:36;;;;;;;16.85;10.30;;;20.60;93.70;;;;;;5016544;28;20034;-79
2021/08/22 10:17:02;;;;;;;17.17;9.75;;;20.70;93.60;;;;;;5033507;28;20044;-80
2021/08/22 10:19:29;;;;;;;16.42;10.35;;;20.70;93.50;;;;;;5030007;28;20129;-79
2021/08/22 10:22:16;;;;;;;15.45;10.35;;;20.60;93.50;;;;;;5030536;28;20124;-77
2021/08/22 10:24:44;;;;;;;13.13;8.15;;;20.50;93.60;;;;;;5014291;28;20026;-76
2021/08/22 10:27:12;;;;;;;14.88;9.10;;;20.40;93.70;;;;;;5013851;28;20029;-77
2021/08/22 10:29:49;;;;;;;14.45;8.50;;;20.40;93.80;;;;;;5013791;28;20049;-77
2021/08/22 10:32:16;;;;;;;14.20;8.73;;;20.30;94.00;;;;;;5010675;28;20040;-73
2021/08/22 10:34:43;;;;;;;16.40;8.85;;;20.20;94.00;;;;;;5011145;28;20078;-76
2021/08/22 10:37:29;;;;;;;19.10;10.75;;;20.20;94.10;;;;;;5011813;28;20124;-76
2021/08/22 10:39:56;;;;;;;12.43;7.35;;;20.20;94.20;;;;;;5011317;28;20084;-73
2021/08/22 10:42:26;;;;;;;16.38;10.00;;;20.20;94.20;;;;;;5012638;28;20041;-75
2021/08/22 10:44:52;;;;;;;15.48;8.63;;;20.10;94.20;;;;;;5011789;28;20026;-74
2021/08/22 10:47:21;;;;;;;16.10;10.00;;;20.10;94.30;;;;;;5013615;28;20022;-74
2021/08/22 10:49:52;;;;;;;14.73;9.10;;;20.10;94.30;;;;;;5013048;28;20034;-74
2021/08/22 10:52:41;;;;;;;16.65;8.95;;;20.10;94.30;;;;;;5013528;28;20069;-74
2021/08/22 10:55:13;;;;;;;16.38;9.52;;;20.20;94.30;;;;;;5012050;28;20113;-75
2021/08/22 10:57:45;;;;;;;16.40;8.90;;;20.30;94.30;;;;;;5012240;28;20489;-73
2021/08/22 11:00:22;;;;;;;14.40;9.07;;;20.30;94.20;;;;;;5013488;28;20026;-74
2021/08/22 11:02:49;;;;;;;15.23;8.90;;;20.40;94.10;;;;;;5011688;28;20091;-75
2021/08/22 11:05:17;;;;;;;14.40;9.23;;;20.50;94.10;;;;;;5013275;28;20088;-74
2021/08/22 11:07:47;;;;;;;13.93;8.32;;;20.50;94.00;;;;;;5011958;28;20018;-79
2021/08/22 11:10:14;;;;;;;12.80;7.75;;;20.60;93.90;;;;;;5011033;28;20025;-74
2021/08/22 11:12:40;;;;;;;14.95;8.65;;;20.70;93.90;;;;;;5013172;28;20577;-74
2021/08/22 11:15:08;;;;;;;12.15;7.55;;;20.70;93.70;;;;;;5011710;28;20017;-73
2021/08/22 11:17:34;;;;;;;15.85;9.13;;;20.80;93.50;;;;;;5012585;28;20025;-74
2021/08/22 11:20:07;;;;;;;15.43;7.35;;;20.90;93.70;;;;;;5010587;28;20022;-74
2021/08/22 11:22:33;;;;;;;12.13;6.82;;;21.00;93.40;;;;;;5012873;28;20105;-74
2021/08/22 11:24:59;;;;;;;14.25;7.18;;;21.00;93.40;;;;;;5012067;28;20029;-73
2021/08/22 11:27:28;;;;;;;11.45;6.72;;;20.90;93.40;;;;;;5012705;28;20032;-74
2021/08/22 11:29:56;;;;;;;12.70;7.13;;;20.90;93.40;;;;;;5012171;28;20029;-74
2021/08/22 11:32:24;;;;;;;12.63;7.88;;;20.90;93.40;;;;;;5011828;28;20499;-75
2021/08/22 11:34:49;;;;;;;13.52;8.43;;;20.90;93.40;;;;;;5010877;28;20551;-74
2021/08/22 11:37:17;;;;;;;14.35;8.63;;;20.90;93.30;;;;;;5012538;28;20097;-74
2021/08/22 11:39:42;;;;;;;12.98;7.53;;;20.80;93.40;;;;;;5010977;28;20087;-74
2021/08/22 11:42:09;;;;;;;14.38;8.27;;;20.90;93.40;;;;;;5011726;28;20454;-74
2021/08/22 11:44:35;;;;;;;13.07;8.15;;;21.00;93.20;;;;;;5012433;28;20129;-73
2021/08/22 11:47:01;;;;;;;14.60;7.97;;;21.20;93.00;;;;;;5011082;28;20113;-74
2021/08/22 11:49:27;;;;;;;14.23;8.48;;;21.30;92.50;;;;;;4998311;28;20952;-75
2021/08/22 11:51:55;;;;;;;14.55;8.38;;;21.40;92.30;;;;;;5022788;28;20038;-74
2021/08/22 11:54:22;;;;;;;12.32;8.00;;;21.50;92.10;;;;;;5037612;28;20485;-75
2021/08/22 11:56:48;;;;;;;13.80;8.70;;;21.60;91.90;;;;;;5023421;28;20633;-74
2021/08/22 11:59:24;;;;;;;12.38;8.40;;;21.60;91.60;;;;;;5024200;28;20041;-73
2021/08/22 12:02:06;;;;;;;13.45;8.45;;;21.60;91.40;;;;;;5021800;28;20034;-74
2021/08/22 12:04:33;;;;;;;14.18;8.90;;;21.60;91.30;;;;;;5020579;28;20032;-73
2021/08/22 12:07:00;;;;;;;13.80;7.85;;;21.70;91.30;;;;;;5024056;28;20113;-75
2021/08/22 12:09:27;;;;;;;11.15;6.97;;;21.80;91.20;;;;;;5022462;28;20937;-74
2021/08/22 12:11:52;;;;;;;12.90;7.63;;;21.90;91.20;;;;;;5022216;28;20040;-74
2021/08/22 12:14:19;;;;;;;12.15;6.82;;;22.00;91.10;;;;;;5023176;28;20033;-74
2021/08/22 12:16:56;;;;;;;13.43;7.63;;;22.10;91.00;;;;;;5024142;28;20552;-73
2021/08/22 12:19:27;;;;;;;14.13;7.82;;;22.20;90.80;;;;;;5035101;28;20164;-74
2021/08/22 12:21:54;;;;;;;11.32;7.72;;;22.20;90.50;;;;;;5022370;28;20100;-74
2021/08/22 12:24:29;;;;;;;11.02;7.30;;;22.30;90.50;;;;;;5027447;28;20612;-74
2021/08/22 12:26:56;;;;;;;12.00;7.82;;;22.30;90.30;;;;;;5023999;28;20018;-74
2021/08/22 12:29:41;;;;;;;15.60;9.40;;;22.20;90.40;;;;;;5023826;28;20112;-75
2021/08/22 12:32:13;;;;;;;12.88;7.07;;;22.20;90.40;;;;;;5023069;28;20387;-73
2021/08/22 12:34:39;;;;;;;10.05;7.15;;;22.20;90.30;;;;;;5020555;28;20067;-73
2021/08/22 12:37:13;;;;;;;11.38;6.80;;;22.30;89.90;;;;;;5018750;28;20029;-73
2021/08/22 12:39:39;;;;;;;10.23;6.10;;;22.40;89.80;;;;;;5021862;28;20036;-73
2021/08/22 12:42:05;;;;;;;11.13;7.57;;;22.40;89.50;;;;;;5022785;28;20037;-74